sensor_id;sensor_type;location;lat;lon;timestamp;temperature;humidity
19344;DHT22;9808;52.402;16.678;2022-11-27T00:00:29;4.80;99.90
19344;DHT22;9808;52.402;16.678;2022-11-27T00:02:56;4.80;99.90
19344;DHT22;9808;52.402;16.678;2022-11-27T00:05:23;4.80;99.90
19344;DHT22;9808;52.402;16.678;2022-11-27T00:07:50;4.80;99.90
19344;DHT22;9808;52.402;16.678;2022-11-27T00:10:17;4.80;99.90
19344;DHT22;9808;52.402;16.678;2022-11-27T00:12:43;4.90;99.90
19344;DHT22;9808;52.402;16.678;2022-11-27T00:15:10;4.80;99.90
19344;DHT22;9808;52.402;16.678;2022-11-27T00:17:42;4.70;99.90
19344;DHT22;9808;52.402;16.678;2022-11-27T00:20:09;4.70;99.90
19344;DHT22;9808;52.402;16.678;2022-11-27T00:22:36;4.60;99.90
19344;DHT22;9808;52.402;16.678;2022-11-27T00:25:03;4.50;99.90
19344;DHT22;9808;52.402;16.678;2022-11-27T00:27:30;4.40;99.90
19344;DHT22;9808;52.402;16.678;2022-11-27T00:29:57;4.30;99.90
19344;DHT22;9808;52.402;16.678;2022-11-27T00:32:24;4.40;99.90
19344;DHT22;9808;52.402;16.678;2022-11-27T00:34:50;5.50;99.90
19344;DHT22;9808;52.402;16.678;2022-11-27T00:37:17;4.40;99.90
19344;DHT22;9808;52.402;16.678;2022-11-27T00:39:44;4.40;99.90
19344;DHT22;9808;52.402;16.678;2022-11-27T00:42:10;4.40;99.90
19344;DHT22;9808;52.402;16.678;2022-11-27T00:44:37;4.50;99.90
19344;DHT22;9808;52.402;16.678;2022-11-27T00:47:04;4.50;99.90
19344;DHT22;9808;52.402;16.678;2022-11-27T00:49:31;4.50;99.90
19344;DHT22;9808;52.402;16.678;2022-11-27T00:51:58;4.50;99.90
19344;DHT22;9808;52.402;16.678;2022-11-27T00:54:25;4.60;99.90
19344;DHT22;9808;52.402;16.678;2022-11-27T00:56:51;4.60;99.90
19344;DHT22;9808;52.402;16.678;2022-11-27T00:59:18;4.60;99.90
19344;DHT22;9808;52.402;16.678;2022-11-27T01:01:45;4.60;99.90
19344;DHT22;9808;52.402;16.678;2022-11-27T01:04:14;4.70;99.90
19344;DHT22;9808;52.402;16.678;2022-11-27T01:06:41;4.70;99.90
19344;DHT22;9808;52.402;16.678;2022-11-27T01:09:13;4.70;99.90
19344;DHT22;9808;52.402;16.678;2022-11-27T01:11:40;4.70;99.90
19344;DHT22;9808;52.402;16.678;2022-11-27T01:14:12;4.70;99.90
19344;DHT22;9808;52.402;16.678;2022-11-27T01:16:39;4.70;99.90
19344;DHT22;9808;52.402;16.678;2022-11-27T01:19:10;4.70;99.90
19344;DHT22;9808;52.402;16.678;2022-11-27T01:21:37;4.70;99.90
19344;DHT22;9808;52.402;16.678;2022-11-27T01:24:05;4.70;99.90
19344;DHT22;9808;52.402;16.678;2022-11-27T01:26:32;4.80;99.90
19344;DHT22;9808;52.402;16.678;2022-11-27T01:28:59;4.80;99.90
19344;DHT22;9808;52.402;16.678;2022-11-27T01:31:29;4.70;99.90
19344;DHT22;9808;52.402;16.678;2022-11-27T01:33:59;4.80;99.90
19344;DHT22;9808;52.402;16.678;2022-11-27T01:36:27;4.80;99.90
19344;DHT22;9808;52.402;16.678;2022-11-27T01:38:54;4.80;99.90
19344;DHT22;9808;52.402;16.678;2022-11-27T01:41:28;4.80;99.90
19344;DHT22;9808;52.402;16.678;2022-11-27T01:43:58;4.80;99.90
19344;DHT22;9808;52.402;16.678;2022-11-27T01:48:56;4.80;99.90
19344;DHT22;9808;52.402;16.678;2022-11-27T01:51:23;6.80;99.90
19344;DHT22;9808;52.402;16.678;2022-11-27T01:53:51;7.00;99.90
19344;DHT22;9808;52.402;16.678;2022-11-27T01:56:19;4.80;99.90
19344;DHT22;9808;52.402;16.678;2022-11-27T01:58:47;4.80;99.90
19344;DHT22;9808;52.402;16.678;2022-11-27T02:01:14;4.80;99.90
19344;DHT22;9808;52.402;16.678;2022-11-27T02:03:41;4.80;99.90
19344;DHT22;9808;52.402;16.678;2022-11-27T02:06:12;4.70;99.90
19344;DHT22;9808;52.402;16.678;2022-11-27T02:08:40;4.70;99.90
19344;DHT22;9808;52.402;16.678;2022-11-27T02:11:35;4.70;99.90
19344;DHT22;9808;52.402;16.678;2022-11-27T02:14:36;4.70;99.90
19344;DHT22;9808;52.402;16.678;2022-11-27T02:31:09;4.80;99.90
19344;DHT22;9808;52.402;16.678;2022-11-27T02:33:41;4.80;99.90
19344;DHT22;9808;52.402;16.678;2022-11-27T02:36:14;4.80;99.90
19344;DHT22;9808;52.402;16.678;2022-11-27T02:38:58;4.80;99.90
19344;DHT22;9808;52.402;16.678;2022-11-27T02:41:46;4.80;99.90
19344;DHT22;9808;52.402;16.678;2022-11-27T02:44:16;4.80;99.90
19344;DHT22;9808;52.402;16.678;2022-11-27T02:46:45;5.70;99.90
19344;DHT22;9808;52.402;16.678;2022-11-27T02:49:17;4.90;99.90
19344;DHT22;9808;52.402;16.678;2022-11-27T02:51:52;4.80;99.90
19344;DHT22;9808;52.402;16.678;2022-11-27T02:54:29;4.80;99.90
19344;DHT22;9808;52.402;16.678;2022-11-27T02:56:59;4.80;99.90
19344;DHT22;9808;52.402;16.678;2022-11-27T02:59:29;4.80;99.90
19344;DHT22;9808;52.402;16.678;2022-11-27T03:02:01;5.80;99.90
19344;DHT22;9808;52.402;16.678;2022-11-27T03:04:41;4.80;99.90
19344;DHT22;9808;52.402;16.678;2022-11-27T03:07:16;4.90;99.90
19344;DHT22;9808;52.402;16.678;2022-11-27T03:09:47;4.90;99.90
19344;DHT22;9808;52.402;16.678;2022-11-27T03:12:16;4.80;99.90
19344;DHT22;9808;52.402;16.678;2022-11-27T03:14:45;4.90;99.90
19344;DHT22;9808;52.402;16.678;2022-11-27T03:19:54;4.90;99.90
19344;DHT22;9808;52.402;16.678;2022-11-27T03:22:23;4.90;99.90
19344;DHT22;9808;52.402;16.678;2022-11-27T03:24:52;4.90;99.90
19344;DHT22;9808;52.402;16.678;2022-11-27T03:27:24;4.90;99.90
19344;DHT22;9808;52.402;16.678;2022-11-27T03:29:54;4.90;99.90
19344;DHT22;9808;52.402;16.678;2022-11-27T03:32:23;5.00;99.90
19344;DHT22;9808;52.402;16.678;2022-11-27T03:34:51;4.90;99.90
19344;DHT22;9808;52.402;16.678;2022-11-27T03:37:18;4.90;99.90
19344;DHT22;9808;52.402;16.678;2022-11-27T03:39:45;5.00;99.90
19344;DHT22;9808;52.402;16.678;2022-11-27T03:42:22;4.90;99.90
19344;DHT22;9808;52.402;16.678;2022-11-27T03:50:57;5.00;99.90
19344;DHT22;9808;52.402;16.678;2022-11-27T03:56:36;4.90;99.90
19344;DHT22;9808;52.402;16.678;2022-11-27T03:59:17;5.70;99.90
19344;DHT22;9808;52.402;16.678;2022-11-27T04:01:46;4.90;99.90
19344;DHT22;9808;52.402;16.678;2022-11-27T04:04:13;4.90;99.90
19344;DHT22;9808;52.402;16.678;2022-11-27T04:06:40;4.90;99.90
19344;DHT22;9808;52.402;16.678;2022-11-27T04:09:06;6.50;99.90
19344;DHT22;9808;52.402;16.678;2022-11-27T04:11:33;4.90;99.90
19344;DHT22;9808;52.402;16.678;2022-11-27T04:14:00;4.90;99.90
19344;DHT22;9808;52.402;16.678;2022-11-27T04:16:26;5.50;99.90
19344;DHT22;9808;52.402;16.678;2022-11-27T04:18:53;4.90;99.90
19344;DHT22;9808;52.402;16.678;2022-11-27T04:21:20;4.90;99.90
19344;DHT22;9808;52.402;16.678;2022-11-27T04:23:47;4.90;99.90
19344;DHT22;9808;52.402;16.678;2022-11-27T04:26:14;4.90;99.90
19344;DHT22;9808;52.402;16.678;2022-11-27T04:28:40;4.90;99.90
19344;DHT22;9808;52.402;16.678;2022-11-27T04:31:07;4.90;99.90
19344;DHT22;9808;52.402;16.678;2022-11-27T04:33:34;4.90;99.90
19344;DHT22;9808;52.402;16.678;2022-11-27T04:36:01;4.90;99.90
19344;DHT22;9808;52.402;16.678;2022-11-27T04:38:27;4.90;99.90
19344;DHT22;9808;52.402;16.678;2022-11-27T04:40:54;4.90;99.90
19344;DHT22;9808;52.402;16.678;2022-11-27T04:43:21;4.90;99.90
19344;DHT22;9808;52.402;16.678;2022-11-27T04:45:47;5.60;99.90
19344;DHT22;9808;52.402;16.678;2022-11-27T04:48:14;4.90;99.90
19344;DHT22;9808;52.402;16.678;2022-11-27T04:50:41;5.00;99.90
19344;DHT22;9808;52.402;16.678;2022-11-27T04:53:08;4.90;99.90
19344;DHT22;9808;52.402;16.678;2022-11-27T04:55:34;4.90;99.90
19344;DHT22;9808;52.402;16.678;2022-11-27T04:58:01;4.90;99.90
19344;DHT22;9808;52.402;16.678;2022-11-27T05:00:28;6.20;99.90
19344;DHT22;9808;52.402;16.678;2022-11-27T05:02:55;4.90;99.90
19344;DHT22;9808;52.402;16.678;2022-11-27T05:05:22;4.90;99.90
19344;DHT22;9808;52.402;16.678;2022-11-27T05:07:49;4.90;99.90
19344;DHT22;9808;52.402;16.678;2022-11-27T05:10:16;4.90;99.90
19344;DHT22;9808;52.402;16.678;2022-11-27T05:12:42;5.00;99.90
19344;DHT22;9808;52.402;16.678;2022-11-27T05:15:09;5.00;99.90
19344;DHT22;9808;52.402;16.678;2022-11-27T05:17:36;5.00;99.90
19344;DHT22;9808;52.402;16.678;2022-11-27T05:20:03;5.00;99.90
19344;DHT22;9808;52.402;16.678;2022-11-27T05:22:29;5.00;99.90
19344;DHT22;9808;52.402;16.678;2022-11-27T05:24:56;4.90;99.90
19344;DHT22;9808;52.402;16.678;2022-11-27T05:27:23;5.10;99.90
19344;DHT22;9808;52.402;16.678;2022-11-27T05:29:50;4.80;99.90
19344;DHT22;9808;52.402;16.678;2022-11-27T05:32:16;6.00;99.90
19344;DHT22;9808;52.402;16.678;2022-11-27T05:34:43;4.80;99.90
19344;DHT22;9808;52.402;16.678;2022-11-27T05:37:10;4.90;99.90
19344;DHT22;9808;52.402;16.678;2022-11-27T05:39:44;4.90;99.90
19344;DHT22;9808;52.402;16.678;2022-11-27T05:42:11;4.90;99.90
19344;DHT22;9808;52.402;16.678;2022-11-27T05:44:38;4.90;99.90
19344;DHT22;9808;52.402;16.678;2022-11-27T05:47:05;4.90;99.90
19344;DHT22;9808;52.402;16.678;2022-11-27T05:49:32;6.00;99.90
19344;DHT22;9808;52.402;16.678;2022-11-27T05:51:58;4.90;99.90
19344;DHT22;9808;52.402;16.678;2022-11-27T05:54:25;4.90;99.90
19344;DHT22;9808;52.402;16.678;2022-11-27T05:56:52;5.00;99.90
19344;DHT22;9808;52.402;16.678;2022-11-27T05:59:19;5.30;99.90
19344;DHT22;9808;52.402;16.678;2022-11-27T06:01:45;5.00;99.90
19344;DHT22;9808;52.402;16.678;2022-11-27T06:04:15;5.00;99.90
19344;DHT22;9808;52.402;16.678;2022-11-27T06:06:41;5.00;99.90
19344;DHT22;9808;52.402;16.678;2022-11-27T06:09:08;5.00;99.90
19344;DHT22;9808;52.402;16.678;2022-11-27T06:11:39;5.00;99.90
19344;DHT22;9808;52.402;16.678;2022-11-27T06:14:09;5.00;99.90
19344;DHT22;9808;52.402;16.678;2022-11-27T06:16:37;5.00;99.90
19344;DHT22;9808;52.402;16.678;2022-11-27T06:19:04;5.10;99.90
19344;DHT22;9808;52.402;16.678;2022-11-27T06:21:30;5.10;99.90
19344;DHT22;9808;52.402;16.678;2022-11-27T06:23:58;5.10;99.90
19344;DHT22;9808;52.402;16.678;2022-11-27T06:26:27;5.10;99.90
19344;DHT22;9808;52.402;16.678;2022-11-27T06:28:56;6.50;99.90
19344;DHT22;9808;52.402;16.678;2022-11-27T06:31:25;5.10;99.90
19344;DHT22;9808;52.402;16.678;2022-11-27T06:33:53;5.10;99.90
19344;DHT22;9808;52.402;16.678;2022-11-27T06:36:22;5.10;99.90
19344;DHT22;9808;52.402;16.678;2022-11-27T06:38:49;5.20;99.90
19344;DHT22;9808;52.402;16.678;2022-11-27T06:41:19;5.20;99.90
19344;DHT22;9808;52.402;16.678;2022-11-27T06:43:46;5.20;99.90
19344;DHT22;9808;52.402;16.678;2022-11-27T06:46:17;5.20;99.90
19344;DHT22;9808;52.402;16.678;2022-11-27T06:48:45;5.20;99.90
19344;DHT22;9808;52.402;16.678;2022-11-27T06:51:15;5.20;99.90
19344;DHT22;9808;52.402;16.678;2022-11-27T06:53:43;5.80;99.90
19344;DHT22;9808;52.402;16.678;2022-11-27T06:56:12;5.20;99.90
19344;DHT22;9808;52.402;16.678;2022-11-27T06:58:40;5.30;99.90
19344;DHT22;9808;52.402;16.678;2022-11-27T07:01:10;5.20;99.90
19344;DHT22;9808;52.402;16.678;2022-11-27T07:03:38;5.90;99.90
19344;DHT22;9808;52.402;16.678;2022-11-27T07:06:07;5.20;99.90
19344;DHT22;9808;52.402;16.678;2022-11-27T07:08:35;6.20;99.90
19344;DHT22;9808;52.402;16.678;2022-11-27T07:11:03;5.10;99.90
19344;DHT22;9808;52.402;16.678;2022-11-27T07:13:30;5.20;99.90
19344;DHT22;9808;52.402;16.678;2022-11-27T07:16:02;5.10;99.90
19344;DHT22;9808;52.402;16.678;2022-11-27T07:18:30;5.10;99.90
19344;DHT22;9808;52.402;16.678;2022-11-27T07:20:59;5.20;99.90
19344;DHT22;9808;52.402;16.678;2022-11-27T07:23:26;5.20;99.90
19344;DHT22;9808;52.402;16.678;2022-11-27T07:25:53;5.20;99.90
19344;DHT22;9808;52.402;16.678;2022-11-27T07:28:19;5.20;99.90
19344;DHT22;9808;52.402;16.678;2022-11-27T07:30:53;5.30;99.90
19344;DHT22;9808;52.402;16.678;2022-11-27T07:33:21;5.30;99.90
19344;DHT22;9808;52.402;16.678;2022-11-27T07:35:48;5.30;99.90
19344;DHT22;9808;52.402;16.678;2022-11-27T07:38:15;5.30;99.90
19344;DHT22;9808;52.402;16.678;2022-11-27T07:40:42;5.30;99.90
19344;DHT22;9808;52.402;16.678;2022-11-27T07:43:08;5.30;99.90
19344;DHT22;9808;52.402;16.678;2022-11-27T07:45:35;5.40;99.90
19344;DHT22;9808;52.402;16.678;2022-11-27T07:48:02;5.40;99.90
19344;DHT22;9808;52.402;16.678;2022-11-27T07:50:29;5.40;99.90
19344;DHT22;9808;52.402;16.678;2022-11-27T07:52:56;5.40;99.90
19344;DHT22;9808;52.402;16.678;2022-11-27T07:55:22;6.10;99.90
19344;DHT22;9808;52.402;16.678;2022-11-27T07:57:50;5.50;99.90
19344;DHT22;9808;52.402;16.678;2022-11-27T08:00:17;5.50;99.90
19344;DHT22;9808;52.402;16.678;2022-11-27T08:02:43;5.60;99.90
19344;DHT22;9808;52.402;16.678;2022-11-27T08:05:10;5.60;99.90
19344;DHT22;9808;52.402;16.678;2022-11-27T08:07:39;5.60;99.90
19344;DHT22;9808;52.402;16.678;2022-11-27T08:10:06;5.60;99.90
19344;DHT22;9808;52.402;16.678;2022-11-27T08:12:33;5.60;99.90
19344;DHT22;9808;52.402;16.678;2022-11-27T08:15:00;5.70;99.90
19344;DHT22;9808;52.402;16.678;2022-11-27T08:17:28;5.70;99.90
19344;DHT22;9808;52.402;16.678;2022-11-27T08:19:55;5.70;99.90
19344;DHT22;9808;52.402;16.678;2022-11-27T08:22:22;7.80;99.90
19344;DHT22;9808;52.402;16.678;2022-11-27T08:24:48;5.70;99.90
19344;DHT22;9808;52.402;16.678;2022-11-27T08:27:17;5.80;99.90
19344;DHT22;9808;52.402;16.678;2022-11-27T08:29:44;6.50;99.90
19344;DHT22;9808;52.402;16.678;2022-11-27T08:32:11;5.80;99.90
19344;DHT22;9808;52.402;16.678;2022-11-27T08:34:37;5.90;99.90
19344;DHT22;9808;52.402;16.678;2022-11-27T08:37:05;5.90;99.90
19344;DHT22;9808;52.402;16.678;2022-11-27T08:39:32;6.00;99.90
19344;DHT22;9808;52.402;16.678;2022-11-27T08:41:59;6.00;99.90
19344;DHT22;9808;52.402;16.678;2022-11-27T08:44:26;6.10;99.90
19344;DHT22;9808;52.402;16.678;2022-11-27T08:46:53;6.10;99.90
19344;DHT22;9808;52.402;16.678;2022-11-27T08:49:19;6.20;99.90
19344;DHT22;9808;52.402;16.678;2022-11-27T08:51:46;6.20;99.90
19344;DHT22;9808;52.402;16.678;2022-11-27T08:54:13;6.10;99.90
19344;DHT22;9808;52.402;16.678;2022-11-27T08:56:40;6.10;99.90
19344;DHT22;9808;52.402;16.678;2022-11-27T08:59:06;6.60;99.90
19344;DHT22;9808;52.402;16.678;2022-11-27T09:01:33;6.20;99.90
19344;DHT22;9808;52.402;16.678;2022-11-27T09:04:01;6.20;99.90
19344;DHT22;9808;52.402;16.678;2022-11-27T09:06:30;6.20;99.90
19344;DHT22;9808;52.402;16.678;2022-11-27T09:08:59;6.30;99.90
19344;DHT22;9808;52.402;16.678;2022-11-27T09:11:28;6.30;99.90
19344;DHT22;9808;52.402;16.678;2022-11-27T09:13:55;6.30;99.90
19344;DHT22;9808;52.402;16.678;2022-11-27T09:16:22;6.00;99.90
19344;DHT22;9808;52.402;16.678;2022-11-27T09:18:51;6.40;99.90
19344;DHT22;9808;52.402;16.678;2022-11-27T09:21:20;6.50;99.90
19344;DHT22;9808;52.402;16.678;2022-11-27T09:23:54;6.50;99.90
19344;DHT22;9808;52.402;16.678;2022-11-27T09:26:21;6.50;99.90
19344;DHT22;9808;52.402;16.678;2022-11-27T09:28:52;6.50;99.90
19344;DHT22;9808;52.402;16.678;2022-11-27T09:31:21;6.50;99.90
19344;DHT22;9808;52.402;16.678;2022-11-27T09:33:48;6.50;99.90
19344;DHT22;9808;52.402;16.678;2022-11-27T09:36:18;6.60;99.90
19344;DHT22;9808;52.402;16.678;2022-11-27T09:38:45;6.60;99.90
19344;DHT22;9808;52.402;16.678;2022-11-27T09:43:57;6.70;99.90
19344;DHT22;9808;52.402;16.678;2022-11-27T09:46:30;6.70;99.90
19344;DHT22;9808;52.402;16.678;2022-11-27T09:49:01;6.70;99.90
19344;DHT22;9808;52.402;16.678;2022-11-27T09:51:32;6.70;99.90
19344;DHT22;9808;52.402;16.678;2022-11-27T09:56:50;6.70;99.90
19344;DHT22;9808;52.402;16.678;2022-11-27T09:59:19;6.70;99.90
19344;DHT22;9808;52.402;16.678;2022-11-27T10:01:47;6.70;99.90
19344;DHT22;9808;52.402;16.678;2022-11-27T10:04:18;6.70;99.90
19344;DHT22;9808;52.402;16.678;2022-11-27T10:07:11;6.90;99.90
19344;DHT22;9808;52.402;16.678;2022-11-27T10:12:48;6.80;99.90
19344;DHT22;9808;52.402;16.678;2022-11-27T10:15:30;6.70;99.90
19344;DHT22;9808;52.402;16.678;2022-11-27T10:18:17;6.70;99.90
19344;DHT22;9808;52.402;16.678;2022-11-27T10:21:10;6.70;99.90
19344;DHT22;9808;52.402;16.678;2022-11-27T10:23:50;6.70;99.90
19344;DHT22;9808;52.402;16.678;2022-11-27T10:26:24;7.00;99.90
19344;DHT22;9808;52.402;16.678;2022-11-27T10:29:10;6.70;99.90
19344;DHT22;9808;52.402;16.678;2022-11-27T10:31:52;6.70;99.90
19344;DHT22;9808;52.402;16.678;2022-11-27T10:34:43;6.90;99.90
19344;DHT22;9808;52.402;16.678;2022-11-27T10:37:18;6.80;99.90
19344;DHT22;9808;52.402;16.678;2022-11-27T10:39:54;6.90;99.90
19344;DHT22;9808;52.402;16.678;2022-11-27T10:42:26;6.90;99.90
19344;DHT22;9808;52.402;16.678;2022-11-27T10:45:03;8.30;99.90
19344;DHT22;9808;52.402;16.678;2022-11-27T10:47:31;6.90;99.90
19344;DHT22;9808;52.402;16.678;2022-11-27T10:50:00;6.90;99.90
19344;DHT22;9808;52.402;16.678;2022-11-27T10:52:27;7.30;99.90
19344;DHT22;9808;52.402;16.678;2022-11-27T10:55:12;7.00;99.90
19344;DHT22;9808;52.402;16.678;2022-11-27T10:57:56;7.00;99.90
19344;DHT22;9808;52.402;16.678;2022-11-27T11:00:28;7.00;99.90
19344;DHT22;9808;52.402;16.678;2022-11-27T11:03:05;7.00;99.90
19344;DHT22;9808;52.402;16.678;2022-11-27T11:05:33;7.10;99.90
19344;DHT22;9808;52.402;16.678;2022-11-27T11:08:20;7.20;99.90
19344;DHT22;9808;52.402;16.678;2022-11-27T11:11:00;8.00;99.90
19344;DHT22;9808;52.402;16.678;2022-11-27T11:18:44;7.30;99.90
19344;DHT22;9808;52.402;16.678;2022-11-27T11:21:15;9.40;99.90
19344;DHT22;9808;52.402;16.678;2022-11-27T11:23:43;7.10;99.90
19344;DHT22;9808;52.402;16.678;2022-11-27T11:26:24;7.80;99.90
19344;DHT22;9808;52.402;16.678;2022-11-27T11:28:54;7.30;99.90
19344;DHT22;9808;52.402;16.678;2022-11-27T11:31:29;8.70;99.90
19344;DHT22;9808;52.402;16.678;2022-11-27T11:33:59;8.70;99.90
19344;DHT22;9808;52.402;16.678;2022-11-27T11:36:27;7.30;99.90
19344;DHT22;9808;52.402;16.678;2022-11-27T11:38:54;7.80;99.90
19344;DHT22;9808;52.402;16.678;2022-11-27T11:41:21;9.10;99.90
19344;DHT22;9808;52.402;16.678;2022-11-27T11:43:58;9.00;99.90
19344;DHT22;9808;52.402;16.678;2022-11-27T11:46:30;8.00;99.90
19344;DHT22;9808;52.402;16.678;2022-11-27T11:49:05;7.30;99.90
19344;DHT22;9808;52.402;16.678;2022-11-27T11:51:50;8.90;99.90
19344;DHT22;9808;52.402;16.678;2022-11-27T11:54:38;7.40;99.90
19344;DHT22;9808;52.402;16.678;2022-11-27T11:57:29;7.40;99.90
19344;DHT22;9808;52.402;16.678;2022-11-27T12:11:13;7.40;99.90
19344;DHT22;9808;52.402;16.678;2022-11-27T12:16:35;7.40;99.90
19344;DHT22;9808;52.402;16.678;2022-11-27T12:30:12;7.50;99.90
19344;DHT22;9808;52.402;16.678;2022-11-27T12:33:08;8.00;99.90
19344;DHT22;9808;52.402;16.678;2022-11-27T12:36:14;7.50;99.90
19344;DHT22;9808;52.402;16.678;2022-11-27T12:39:14;7.70;99.90
19344;DHT22;9808;52.402;16.678;2022-11-27T12:47:50;7.50;99.90
19344;DHT22;9808;52.402;16.678;2022-11-27T12:50:40;7.40;99.90
19344;DHT22;9808;52.402;16.678;2022-11-27T12:53:18;7.50;99.90
19344;DHT22;9808;52.402;16.678;2022-11-27T12:58:47;7.50;99.90
19344;DHT22;9808;52.402;16.678;2022-11-27T13:01:48;8.50;99.90
19344;DHT22;9808;52.402;16.678;2022-11-27T13:04:53;7.40;99.90
19344;DHT22;9808;52.402;16.678;2022-11-27T13:09:56;7.40;99.90
19344;DHT22;9808;52.402;16.678;2022-11-27T13:12:37;7.40;99.90
19344;DHT22;9808;52.402;16.678;2022-11-27T13:15:23;7.40;99.90
19344;DHT22;9808;52.402;16.678;2022-11-27T13:17:59;7.40;99.90
19344;DHT22;9808;52.402;16.678;2022-11-27T13:20:33;7.40;99.90
19344;DHT22;9808;52.402;16.678;2022-11-27T13:23:02;7.40;99.90
19344;DHT22;9808;52.402;16.678;2022-11-27T13:25:30;7.80;99.90
19344;DHT22;9808;52.402;16.678;2022-11-27T13:28:01;9.50;99.90
19344;DHT22;9808;52.402;16.678;2022-11-27T13:30:32;7.40;99.90
19344;DHT22;9808;52.402;16.678;2022-11-27T13:33:01;7.40;99.90
19344;DHT22;9808;52.402;16.678;2022-11-27T13:35:35;7.30;99.90
19344;DHT22;9808;52.402;16.678;2022-11-27T13:40:42;7.40;99.90
19344;DHT22;9808;52.402;16.678;2022-11-27T13:43:29;7.30;99.90
19344;DHT22;9808;52.402;16.678;2022-11-27T13:46:08;7.30;99.90
19344;DHT22;9808;52.402;16.678;2022-11-27T13:48:40;7.30;99.90
19344;DHT22;9808;52.402;16.678;2022-11-27T13:51:09;8.60;99.90
19344;DHT22;9808;52.402;16.678;2022-11-27T13:53:39;7.30;99.90
19344;DHT22;9808;52.402;16.678;2022-11-27T13:56:07;7.30;99.90
19344;DHT22;9808;52.402;16.678;2022-11-27T13:58:40;7.60;99.90
19344;DHT22;9808;52.402;16.678;2022-11-27T14:01:19;7.20;99.90
19344;DHT22;9808;52.402;16.678;2022-11-27T14:03:47;7.20;99.90
19344;DHT22;9808;52.402;16.678;2022-11-27T14:06:29;7.30;99.90
19344;DHT22;9808;52.402;16.678;2022-11-27T14:09:04;7.10;99.90
19344;DHT22;9808;52.402;16.678;2022-11-27T14:11:38;8.10;99.90
19344;DHT22;9808;52.402;16.678;2022-11-27T14:14:26;7.10;99.90
19344;DHT22;9808;52.402;16.678;2022-11-27T14:17:01;7.10;99.90
19344;DHT22;9808;52.402;16.678;2022-11-27T14:19:42;7.20;99.90
19344;DHT22;9808;52.402;16.678;2022-11-27T14:22:34;7.20;99.90
19344;DHT22;9808;52.402;16.678;2022-11-27T14:25:25;7.20;99.90
19344;DHT22;9808;52.402;16.678;2022-11-27T14:30:47;6.90;99.90
19344;DHT22;9808;52.402;16.678;2022-11-27T14:35:53;6.80;99.90
19344;DHT22;9808;52.402;16.678;2022-11-27T14:38:21;6.80;99.90
19344;DHT22;9808;52.402;16.678;2022-11-27T14:40:49;6.70;99.90
19344;DHT22;9808;52.402;16.678;2022-11-27T14:43:22;6.70;99.90
19344;DHT22;9808;52.402;16.678;2022-11-27T14:45:54;7.40;99.90
19344;DHT22;9808;52.402;16.678;2022-11-27T14:48:59;6.60;99.90
19344;DHT22;9808;52.402;16.678;2022-11-27T14:51:27;6.50;99.90
19344;DHT22;9808;52.402;16.678;2022-11-27T14:54:02;6.50;99.90
19344;DHT22;9808;52.402;16.678;2022-11-27T14:56:33;7.90;99.90
19344;DHT22;9808;52.402;16.678;2022-11-27T14:59:01;6.40;99.90
19344;DHT22;9808;52.402;16.678;2022-11-27T15:01:34;6.40;99.90
19344;DHT22;9808;52.402;16.678;2022-11-27T15:04:04;6.40;99.90
19344;DHT22;9808;52.402;16.678;2022-11-27T15:06:39;6.40;99.90
19344;DHT22;9808;52.402;16.678;2022-11-27T15:09:16;6.30;99.90
19344;DHT22;9808;52.402;16.678;2022-11-27T15:12:07;7.80;99.90
19344;DHT22;9808;52.402;16.678;2022-11-27T15:14:44;6.30;99.90
19344;DHT22;9808;52.402;16.678;2022-11-27T15:17:17;6.30;99.90
19344;DHT22;9808;52.402;16.678;2022-11-27T15:19:45;6.20;99.90
19344;DHT22;9808;52.402;16.678;2022-11-27T15:22:15;6.20;99.90
19344;DHT22;9808;52.402;16.678;2022-11-27T15:24:43;7.20;99.90
19344;DHT22;9808;52.402;16.678;2022-11-27T15:30:28;6.20;99.90
19344;DHT22;9808;52.402;16.678;2022-11-27T15:32:49;6.20;99.90
19344;DHT22;9808;52.402;16.678;2022-11-27T15:35:28;6.20;99.90
19344;DHT22;9808;52.402;16.678;2022-11-27T15:37:56;6.10;99.90
19344;DHT22;9808;52.402;16.678;2022-11-27T15:40:38;6.10;99.90
19344;DHT22;9808;52.402;16.678;2022-11-27T15:43:18;6.10;99.90
19344;DHT22;9808;52.402;16.678;2022-11-27T15:45:44;6.10;99.90
19344;DHT22;9808;52.402;16.678;2022-11-27T15:48:14;6.10;99.90
19344;DHT22;9808;52.402;16.678;2022-11-27T15:50:41;6.10;99.90
19344;DHT22;9808;52.402;16.678;2022-11-27T15:53:16;6.10;99.90
19344;DHT22;9808;52.402;16.678;2022-11-27T15:55:43;7.00;99.90
19344;DHT22;9808;52.402;16.678;2022-11-27T15:58:10;6.10;99.90
19344;DHT22;9808;52.402;16.678;2022-11-27T16:00:36;6.10;99.90
19344;DHT22;9808;52.402;16.678;2022-11-27T16:03:03;6.00;99.90
19344;DHT22;9808;52.402;16.678;2022-11-27T16:05:30;7.20;99.90
19344;DHT22;9808;52.402;16.678;2022-11-27T16:07:57;6.60;99.90
19344;DHT22;9808;52.402;16.678;2022-11-27T16:10:24;7.50;99.90
19344;DHT22;9808;52.402;16.678;2022-11-27T16:12:50;6.00;99.90
19344;DHT22;9808;52.402;16.678;2022-11-27T16:15:21;6.00;99.90
19344;DHT22;9808;52.402;16.678;2022-11-27T16:17:49;6.00;99.90
19344;DHT22;9808;52.402;16.678;2022-11-27T16:20:16;5.90;99.90
19344;DHT22;9808;52.402;16.678;2022-11-27T16:22:43;6.00;99.90
19344;DHT22;9808;52.402;16.678;2022-11-27T16:25:09;5.90;99.90
19344;DHT22;9808;52.402;16.678;2022-11-27T16:27:36;5.90;99.90
19344;DHT22;9808;52.402;16.678;2022-11-27T16:30:03;6.60;99.90
19344;DHT22;9808;52.402;16.678;2022-11-27T16:32:30;5.90;99.90
19344;DHT22;9808;52.402;16.678;2022-11-27T16:34:57;5.90;99.90
19344;DHT22;9808;52.402;16.678;2022-11-27T16:37:23;5.90;99.90
19344;DHT22;9808;52.402;16.678;2022-11-27T16:39:50;5.80;99.90
19344;DHT22;9808;52.402;16.678;2022-11-27T16:42:17;5.80;99.90
19344;DHT22;9808;52.402;16.678;2022-11-27T16:44:43;5.80;99.90
19344;DHT22;9808;52.402;16.678;2022-11-27T16:47:10;5.80;99.90
19344;DHT22;9808;52.402;16.678;2022-11-27T16:49:38;5.80;99.90
19344;DHT22;9808;52.402;16.678;2022-11-27T16:52:04;5.80;99.90
19344;DHT22;9808;52.402;16.678;2022-11-27T16:54:31;5.80;99.90
19344;DHT22;9808;52.402;16.678;2022-11-27T16:56:58;5.70;99.90
19344;DHT22;9808;52.402;16.678;2022-11-27T16:59:25;5.80;99.90
19344;DHT22;9808;52.402;16.678;2022-11-27T17:01:52;5.70;99.90
19344;DHT22;9808;52.402;16.678;2022-11-27T17:04:19;5.70;99.90
19344;DHT22;9808;52.402;16.678;2022-11-27T17:06:48;6.40;99.90
19344;DHT22;9808;52.402;16.678;2022-11-27T17:09:15;5.70;99.90
19344;DHT22;9808;52.402;16.678;2022-11-27T17:11:45;5.70;99.90
19344;DHT22;9808;52.402;16.678;2022-11-27T17:14:14;5.70;99.90
19344;DHT22;9808;52.402;16.678;2022-11-27T17:16:41;5.70;99.90
19344;DHT22;9808;52.402;16.678;2022-11-27T17:19:13;5.70;99.90
19344;DHT22;9808;52.402;16.678;2022-11-27T17:21:40;5.70;99.90
19344;DHT22;9808;52.402;16.678;2022-11-27T17:24:10;5.70;99.90
19344;DHT22;9808;52.402;16.678;2022-11-27T17:26:41;5.60;99.90
19344;DHT22;9808;52.402;16.678;2022-11-27T17:29:10;5.60;99.90
19344;DHT22;9808;52.402;16.678;2022-11-27T17:31:37;5.60;99.90
19344;DHT22;9808;52.402;16.678;2022-11-27T17:34:04;5.60;99.90
19344;DHT22;9808;52.402;16.678;2022-11-27T17:36:33;5.70;99.90